Terminal Aerodrome Forecast
Issued by NWS Buffalo, NY

Home | Current Version | Previous Version | Text Only | Print | Product List | Glossary On
Versions: 1 2 3 4 5 6 7 8 9 10 11 12 13 14 15 16 17 18 19 20 21 22 23 24 25 26 27 28 29 30
688
FTUS41 KBUF 022322
TAFBUF
TAF
KBUF 022322Z 0300/0324 27015G25KT P6SM VCSH OVC040
     FM030100 27015G21KT P6SM -SHRA OVC025
     FM030200 28013KT P6SM VCSH OVC035
     FM030800 29011KT P6SM OVC025
     FM031700 29011G17KT P6SM BKN025
     FM032000 28011KT P6SM OVC025=

USA.gov is the U.S. government's official web portal to all federal, state and local government web resources and services.